Time;durP1;ratioP1;P1;durP2;ratioP2;P2;SDS_P1;SDS_P2;PMS_P1;PMS_P2;Temp;Humidity;BMP_temperature;BMP_pressure;BME280_temperature;BME280_humidity;BME280_pressure;Samples;Min_cycle;Max_cycle;Signal;HPM_P1;HPM_P2
2021/07/25 00:00:41;;;;;;;8.40;5.43;;;29.60;52.70;;;;;;4997167;28;20034;-49
2021/07/25 00:03:08;;;;;;;6.55;4.57;;;29.70;52.80;;;;;;4997630;28;20535;-49
2021/07/25 00:05:34;;;;;;;7.15;4.53;;;29.60;52.70;;;;;;4979930;28;20058;-53
2021/07/25 00:08:00;;;;;;;6.50;3.80;;;29.60;52.60;;;;;;4998097;28;20357;-49
2021/07/25 00:10:26;;;;;;;5.60;3.70;;;29.60;52.70;;;;;;4997835;28;20030;-50
2021/07/25 00:12:51;;;;;;;4.75;3.30;;;29.60;52.60;;;;;;4997755;28;20035;-51
2021/07/25 00:15:17;;;;;;;5.03;3.50;;;29.60;52.50;;;;;;4998048;28;20034;-47
2021/07/25 00:17:43;;;;;;;8.30;3.63;;;29.50;52.40;;;;;;4998055;28;20121;-46
2021/07/25 00:20:09;;;;;;;7.97;3.78;;;29.50;52.40;;;;;;4998063;28;20176;-47
2021/07/25 00:22:35;;;;;;;6.20;3.45;;;29.50;52.50;;;;;;4997653;28;20034;-49
2021/07/25 00:25:19;;;;;;;5.53;3.63;;;29.50;52.60;;;;;;4997950;28;20026;-45
2021/07/25 00:27:49;;;;;;;5.30;3.53;;;29.50;52.90;;;;;;4997784;28;20442;-50
2021/07/25 00:30:14;;;;;;;5.20;3.47;;;29.40;53.00;;;;;;4997310;28;20026;-50
2021/07/25 00:32:41;;;;;;;7.10;3.65;;;29.40;53.10;;;;;;4997397;28;20449;-51
2021/07/25 00:35:09;;;;;;;5.50;3.08;;;29.40;53.20;;;;;;4993527;28;20524;-46
2021/07/25 00:37:35;;;;;;;6.28;3.60;;;29.30;53.20;;;;;;4994281;28;20544;-50
2021/07/25 00:40:01;;;;;;;5.70;3.88;;;29.30;53.40;;;;;;4977722;28;20026;-47
2021/07/25 00:42:37;;;;;;;5.30;3.83;;;29.20;53.40;;;;;;4976999;28;20033;-50
2021/07/25 00:45:03;;;;;;;6.03;4.07;;;29.10;53.50;;;;;;4994507;28;20569;-47
2021/07/25 00:47:29;;;;;;;5.70;4.00;;;29.20;53.30;;;;;;4976674;28;20370;-52
2021/07/25 00:49:55;;;;;;;7.03;4.57;;;29.10;53.30;;;;;;4977087;28;20066;-52
2021/07/25 00:52:20;;;;;;;6.63;3.92;;;29.10;53.20;;;;;;4976579;28;20030;-51
2021/07/25 00:54:46;;;;;;;4.85;3.83;;;29.10;53.10;;;;;;4994305;28;20080;-47
2021/07/25 00:57:12;;;;;;;6.13;4.32;;;29.10;53.10;;;;;;4994584;28;20034;-49
2021/07/25 00:59:37;;;;;;;5.40;4.30;;;29.10;53.60;;;;;;4993677;28;20022;-51
2021/07/25 01:02:03;;;;;;;6.28;4.35;;;29.00;53.80;;;;;;4994391;28;20042;-47
2021/07/25 01:04:43;;;;;;;6.82;4.35;;;29.00;54.00;;;;;;4993486;28;20146;-51
2021/07/25 01:07:26;;;;;;;6.50;4.93;;;28.90;54.20;;;;;;4994633;28;20144;-50
2021/07/25 01:10:05;;;;;;;8.27;4.90;;;28.80;54.40;;;;;;4976990;28;20435;-52
2021/07/25 01:12:43;;;;;;;6.82;4.53;;;28.80;54.90;;;;;;4993442;28;20362;-49
2021/07/25 01:15:13;;;;;;;9.57;4.90;;;28.70;54.90;;;;;;4994194;28;20155;-52
2021/07/25 01:17:39;;;;;;;5.85;3.88;;;28.70;54.90;;;;;;4976569;28;20389;-50
2021/07/25 01:20:05;;;;;;;7.25;4.20;;;28.70;55.00;;;;;;4994343;28;20034;-50
2021/07/25 01:22:33;;;;;;;6.78;3.90;;;28.70;55.10;;;;;;4994056;28;20084;-47
2021/07/25 01:25:00;;;;;;;6.35;4.40;;;28.70;55.20;;;;;;4994230;28;20027;-47
2021/07/25 01:27:30;;;;;;;6.65;4.40;;;28.70;55.30;;;;;;4993978;28;20525;-49
2021/07/25 01:29:58;;;;;;;6.30;4.47;;;28.60;55.50;;;;;;4994107;28;20113;-48
2021/07/25 01:32:26;;;;;;;6.47;4.78;;;28.60;55.60;;;;;;4993953;28;20157;-49
2021/07/25 01:34:56;;;;;;;8.07;4.80;;;28.60;55.70;;;;;;4976878;28;20081;-48
2021/07/25 01:37:24;;;;;;;11.63;5.43;;;28.60;55.90;;;;;;4993777;28;20034;-48
2021/07/25 01:39:51;;;;;;;7.38;5.40;;;28.60;55.80;;;;;;4994323;28;20089;-48
2021/07/25 01:42:30;;;;;;;6.78;4.93;;;28.50;55.60;;;;;;4993684;28;20031;-52
2021/07/25 01:45:15;;;;;;;6.43;5.03;;;28.40;55.80;;;;;;4993722;28;20030;-46
2021/07/25 01:47:40;;;;;;;6.80;5.22;;;28.40;56.30;;;;;;4993304;28;20034;-49
2021/07/25 01:50:07;;;;;;;7.80;5.70;;;28.40;56.10;;;;;;4993766;28;20026;-51
2021/07/25 01:52:33;;;;;;;9.85;5.60;;;28.30;56.30;;;;;;4993429;28;20022;-50
2021/07/25 01:54:59;;;;;;;8.40;5.82;;;28.30;56.30;;;;;;4993504;28;20036;-51
2021/07/25 01:57:25;;;;;;;9.07;5.82;;;28.30;56.50;;;;;;4993320;28;20038;-47
2021/07/25 01:59:51;;;;;;;9.60;6.88;;;28.30;56.20;;;;;;4993625;28;20528;-49
2021/07/25 02:02:17;;;;;;;10.02;5.90;;;28.20;56.10;;;;;;4993528;28;20058;-49
2021/07/25 02:04:42;;;;;;;9.13;6.47;;;28.20;56.30;;;;;;4993635;28;20046;-52
2021/07/25 02:07:08;;;;;;;7.75;6.53;;;28.20;56.60;;;;;;4993775;28;20413;-47
2021/07/25 02:09:35;;;;;;;7.95;6.20;;;28.20;56.50;;;;;;4992957;28;20030;-49
2021/07/25 02:12:02;;;;;;;8.02;6.22;;;28.10;56.50;;;;;;4993754;28;20038;-50
2021/07/25 02:14:28;;;;;;;7.45;6.10;;;28.10;56.60;;;;;;4993107;28;20037;-46
2021/07/25 02:16:53;;;;;;;7.72;5.97;;;28.10;56.70;;;;;;4993531;28;20034;-49
2021/07/25 02:19:19;;;;;;;8.40;6.68;;;28.10;56.80;;;;;;4975548;28;20077;-52
2021/07/25 02:21:45;;;;;;;7.80;6.72;;;28.10;57.10;;;;;;4993260;28;20101;-47
2021/07/25 02:24:10;;;;;;;7.47;6.03;;;28.10;57.10;;;;;;4993669;28;20022;-49
2021/07/25 02:26:36;;;;;;;9.57;6.25;;;28.10;57.20;;;;;;4992652;28;20405;-51
2021/07/25 02:29:02;;;;;;;7.40;6.35;;;28.00;57.20;;;;;;4993385;28;20034;-48
2021/07/25 02:31:27;;;;;;;6.82;5.88;;;28.00;57.30;;;;;;4992732;28;20034;-50
2021/07/25 02:33:53;;;;;;;7.38;5.80;;;28.00;57.40;;;;;;4992952;28;20033;-50
2021/07/25 02:36:19;;;;;;;10.68;6.93;;;28.00;57.40;;;;;;4992163;28;20393;-46
2021/07/25 02:38:44;;;;;;;7.32;5.95;;;28.00;57.50;;;;;;4992758;28;20496;-46
2021/07/25 02:41:10;;;;;;;9.77;6.22;;;27.90;57.40;;;;;;4991764;28;20105;-48
2021/07/25 02:43:36;;;;;;;8.30;6.38;;;28.00;57.30;;;;;;4989564;28;20500;-46
2021/07/25 02:46:01;;;;;;;8.95;6.18;;;28.00;57.30;;;;;;4991694;28;20061;-50
2021/07/25 02:48:27;;;;;;;8.18;6.80;;;27.90;57.40;;;;;;4991595;28;20053;-51
2021/07/25 02:50:52;;;;;;;8.48;6.75;;;27.90;57.60;;;;;;4975218;28;20076;-49
2021/07/25 02:53:18;;;;;;;7.63;6.38;;;27.90;57.80;;;;;;4992767;28;20030;-44
2021/07/25 02:55:44;;;;;;;10.27;6.95;;;27.90;58.00;;;;;;4991909;28;20026;-49
2021/07/25 02:58:09;;;;;;;13.32;7.50;;;28.00;58.10;;;;;;4991673;28;20388;-49
2021/07/25 03:00:35;;;;;;;10.05;8.10;;;28.00;58.10;;;;;;4987697;28;20026;-46
2021/07/25 03:03:00;;;;;;;9.77;7.50;;;28.00;57.90;;;;;;4991679;28;20030;-51
2021/07/25 03:05:26;;;;;;;11.70;7.75;;;28.00;57.80;;;;;;4991820;28;20042;-47
2021/07/25 03:07:52;;;;;;;10.43;7.03;;;27.90;57.60;;;;;;4992190;28;20022;-47
2021/07/25 03:10:18;;;;;;;9.50;6.60;;;27.90;57.40;;;;;;4992365;28;20140;-48
2021/07/25 03:12:44;;;;;;;8.80;6.80;;;27.90;57.60;;;;;;4991913;28;20126;-52
2021/07/25 03:15:11;;;;;;;8.35;6.82;;;27.80;57.60;;;;;;4992650;28;20026;-50
2021/07/25 03:17:37;;;;;;;8.77;7.50;;;27.80;57.70;;;;;;4992044;28;20057;-50
2021/07/25 03:20:03;;;;;;;8.57;6.78;;;27.80;57.80;;;;;;4975048;28;20073;-49
2021/07/25 03:22:29;;;;;;;7.45;6.38;;;27.80;57.70;;;;;;4991913;28;20026;-50
2021/07/25 03:24:55;;;;;;;8.23;6.93;;;27.80;57.60;;;;;;4992622;28;20022;-53
2021/07/25 03:27:20;;;;;;;9.95;6.90;;;27.80;57.50;;;;;;4992643;28;20026;-48
2021/07/25 03:29:46;;;;;;;12.75;7.93;;;27.80;57.40;;;;;;4992237;28;20046;-48
2021/07/25 03:32:12;;;;;;;8.95;6.72;;;27.70;57.30;;;;;;4992526;28;20038;-49
2021/07/25 03:34:38;;;;;;;7.40;6.45;;;27.70;57.30;;;;;;4991812;28;20037;-49
2021/07/25 03:37:04;;;;;;;12.20;7.15;;;27.70;57.20;;;;;;4992373;28;20034;-50
2021/07/25 03:39:31;;;;;;;8.45;6.53;;;27.80;57.20;;;;;;4974371;28;20384;-47
2021/07/25 03:41:57;;;;;;;9.50;6.45;;;27.80;57.80;;;;;;4991666;28;20102;-51
2021/07/25 03:44:23;;;;;;;9.30;6.47;;;27.70;57.10;;;;;;4991516;28;20022;-48
2021/07/25 03:46:49;;;;;;;8.20;6.38;;;27.70;56.90;;;;;;4991603;28;20473;-47
2021/07/25 03:49:14;;;;;;;10.70;7.18;;;27.70;56.90;;;;;;4991918;28;20023;-45
2021/07/25 03:51:40;;;;;;;8.70;6.55;;;27.70;56.90;;;;;;4991565;28;20025;-49
2021/07/25 03:54:06;;;;;;;9.25;6.50;;;27.70;56.90;;;;;;4992043;28;20346;-51
2021/07/25 03:56:37;;;;;;;8.82;6.72;;;27.70;56.80;;;;;;4974404;28;20484;-46
2021/07/25 03:59:03;;;;;;;9.68;6.70;;;27.80;56.80;;;;;;4992408;28;20026;-50
2021/07/25 04:01:29;;;;;;;7.63;6.38;;;27.80;56.60;;;;;;4991609;28;20091;-46
2021/07/25 04:03:55;;;;;;;7.45;6.22;;;27.80;56.60;;;;;;4992094;28;20022;-49
2021/07/25 04:06:20;;;;;;;7.20;6.05;;;27.80;56.50;;;;;;4991866;28;20503;-47
2021/07/25 04:08:46;;;;;;;9.07;6.22;;;27.70;56.40;;;;;;4993266;28;20351;-52
2021/07/25 04:11:19;;;;;;;7.55;5.75;;;27.70;56.30;;;;;;4995671;28;20034;-50
2021/07/25 04:13:45;;;;;;;11.68;6.47;;;27.70;56.70;;;;;;4977804;28;20033;-49
2021/07/25 04:16:10;;;;;;;7.55;5.57;;;27.70;56.60;;;;;;4978498;28;20034;-50
2021/07/25 04:18:36;;;;;;;7.00;5.90;;;27.70;57.20;;;;;;4977835;28;20044;-45
2021/07/25 04:21:02;;;;;;;8.57;5.82;;;27.70;56.70;;;;;;4995816;28;20025;-50
2021/07/25 04:23:28;;;;;;;7.38;5.47;;;27.70;56.70;;;;;;4977836;28;20507;-51
2021/07/25 04:25:54;;;;;;;7.30;5.32;;;27.60;56.60;;;;;;4995627;28;20031;-50
2021/07/25 04:28:20;;;;;;;8.35;5.85;;;27.70;56.80;;;;;;4995571;28;20109;-48
2021/07/25 04:30:46;;;;;;;10.18;5.82;;;27.70;56.70;;;;;;4995033;28;20022;-48
2021/07/25 04:33:12;;;;;;;8.90;5.68;;;27.60;56.70;;;;;;4995530;28;20053;-46
2021/07/25 04:35:39;;;;;;;8.50;5.78;;;27.70;56.80;;;;;;4994922;28;20079;-50
2021/07/25 04:38:05;;;;;;;8.48;5.88;;;27.60;56.80;;;;;;4995437;28;20023;-51
2021/07/25 04:40:32;;;;;;;7.82;5.82;;;27.70;56.90;;;;;;4994691;28;20488;-52
2021/07/25 04:42:58;;;;;;;8.48;5.80;;;27.70;56.80;;;;;;4995195;28;20041;-48
2021/07/25 04:45:33;;;;;;;8.73;5.78;;;27.70;56.90;;;;;;4995393;28;20049;-48
2021/07/25 04:48:08;;;;;;;7.72;6.28;;;27.60;57.00;;;;;;4994946;28;20024;-52
2021/07/25 04:50:41;;;;;;;10.32;6.30;;;27.60;57.00;;;;;;4994706;28;20403;-49
2021/07/25 04:53:22;;;;;;;6.60;5.63;;;27.70;57.00;;;;;;4995285;28;20033;-49
2021/07/25 04:55:55;;;;;;;9.45;5.90;;;27.70;56.90;;;;;;4978723;28;20022;-52
2021/07/25 04:58:25;;;;;;;7.57;6.55;;;27.70;57.00;;;;;;4995137;28;20038;-48
2021/07/25 05:00:53;;;;;;;6.72;5.80;;;27.70;57.00;;;;;;4994507;28;20240;-44
2021/07/25 05:03:21;;;;;;;8.30;6.18;;;27.70;57.00;;;;;;4994892;28;20030;-47
2021/07/25 05:05:48;;;;;;;12.25;6.28;;;27.70;56.90;;;;;;4994544;28;20054;-43
2021/07/25 05:08:14;;;;;;;7.28;5.65;;;27.70;56.90;;;;;;4977463;28;20157;-48
2021/07/25 05:10:41;;;;;;;9.23;6.63;;;27.70;56.70;;;;;;4994111;28;20105;-46
2021/07/25 05:13:13;;;;;;;7.00;5.47;;;27.70;56.70;;;;;;4994615;28;20481;-49
2021/07/25 05:15:45;;;;;;;10.52;6.03;;;27.70;56.70;;;;;;4976537;28;20033;-49
2021/07/25 05:18:36;;;;;;;7.88;5.70;;;27.70;56.50;;;;;;4994346;28;20022;-43
2021/07/25 05:21:17;;;;;;;8.50;5.75;;;27.70;56.50;;;;;;4994055;28;20096;-45
2021/07/25 05:23:45;;;;;;;7.78;5.63;;;27.80;56.40;;;;;;4994048;28;20023;-46
2021/07/25 05:26:12;;;;;;;7.93;5.45;;;27.80;56.20;;;;;;4977342;28;20050;-50
2021/07/25 05:28:38;;;;;;;7.55;5.30;;;27.80;56.20;;;;;;4993413;28;20026;-47
2021/07/25 05:31:07;;;;;;;7.32;5.57;;;27.80;56.20;;;;;;4993963;28;20104;-48
2021/07/25 05:33:33;;;;;;;8.18;5.88;;;27.80;56.30;;;;;;4976676;28;20026;-53
2021/07/25 05:35:58;;;;;;;11.00;5.68;;;27.80;56.30;;;;;;4993938;28;20034;-46
2021/07/25 05:38:24;;;;;;;8.52;6.28;;;27.80;56.40;;;;;;4993958;28;20369;-51
2021/07/25 05:40:50;;;;;;;6.72;5.50;;;27.80;56.40;;;;;;4993528;28;20030;-50
2021/07/25 05:43:16;;;;;;;8.63;5.53;;;27.80;56.40;;;;;;4976752;28;20029;-48
2021/07/25 05:45:43;;;;;;;7.75;5.30;;;27.80;56.50;;;;;;4993672;28;20028;-51
2021/07/25 05:48:09;;;;;;;7.78;5.63;;;27.80;56.50;;;;;;4993815;28;20026;-45
2021/07/25 05:50:35;;;;;;;8.63;5.53;;;27.80;56.50;;;;;;4993255;28;20181;-48
2021/07/25 05:53:01;;;;;;;8.25;6.00;;;27.80;56.50;;;;;;4994046;28;20100;-48
2021/07/25 05:55:29;;;;;;;8.65;5.72;;;27.80;56.50;;;;;;4976432;28;20026;-47
2021/07/25 05:57:56;;;;;;;8.98;6.35;;;27.80;56.50;;;;;;4993461;28;20129;-50
2021/07/25 06:00:22;;;;;;;6.70;5.78;;;27.80;56.50;;;;;;4990365;28;20478;-49
2021/07/25 06:02:58;;;;;;;8.02;5.50;;;27.90;56.60;;;;;;4975567;28;20404;-50
2021/07/25 06:05:25;;;;;;;7.63;5.32;;;27.80;56.60;;;;;;4993339;28;20053;-43
2021/07/25 06:07:52;;;;;;;8.35;5.65;;;27.90;56.40;;;;;;4993102;28;20030;-47
2021/07/25 06:10:20;;;;;;;7.95;5.93;;;27.90;56.40;;;;;;4993720;28;20136;-50
2021/07/25 06:12:46;;;;;;;7.28;5.15;;;27.90;56.40;;;;;;4992556;28;20469;-47
2021/07/25 06:15:12;;;;;;;6.88;5.85;;;27.90;56.60;;;;;;4993616;28;20318;-47
2021/07/25 06:17:38;;;;;;;7.75;5.07;;;27.90;56.50;;;;;;4992596;28;20350;-46
2021/07/25 06:20:05;;;;;;;7.70;4.97;;;28.00;56.40;;;;;;4992857;28;20077;-50
2021/07/25 06:22:57;;;;;;;7.50;5.35;;;28.00;56.20;;;;;;4975242;28;20081;-47
2021/07/25 06:25:25;;;;;;;6.95;5.63;;;28.00;56.30;;;;;;4990526;28;20026;-48
2021/07/25 06:27:54;;;;;;;7.78;4.97;;;28.00;56.00;;;;;;4992483;28;20029;-49
2021/07/25 06:30:22;;;;;;;5.88;4.88;;;28.00;56.00;;;;;;4992896;28;20022;-51
2021/07/25 06:33:01;;;;;;;8.82;5.13;;;28.00;55.90;;;;;;4957862;28;20030;-49
2021/07/25 06:35:29;;;;;;;5.25;4.40;;;28.00;56.00;;;;;;4975642;28;20030;-49
2021/07/25 06:37:57;;;;;;;7.28;4.70;;;28.10;55.90;;;;;;4992421;28;20057;-48
2021/07/25 06:40:25;;;;;;;7.53;4.88;;;28.10;55.90;;;;;;4975903;28;20023;-48
2021/07/25 06:42:51;;;;;;;10.20;4.60;;;28.10;55.70;;;;;;4992562;28;20101;-48
2021/07/25 06:45:16;;;;;;;6.85;4.88;;;28.10;55.60;;;;;;4975507;28;20057;-47
2021/07/25 06:47:49;;;;;;;6.07;4.35;;;28.10;55.60;;;;;;4992617;28;20055;-47
2021/07/25 06:50:19;;;;;;;6.83;4.20;;;28.20;55.50;;;;;;4992910;28;20057;-50
2021/07/25 06:52:45;;;;;;;7.45;4.43;;;28.20;55.30;;;;;;4974910;28;20309;-49
2021/07/25 06:55:11;;;;;;;6.78;4.15;;;28.40;55.20;;;;;;4992462;28;20050;-51
2021/07/25 06:57:37;;;;;;;6.30;4.35;;;28.50;55.00;;;;;;4992066;28;20041;-49
2021/07/25 07:00:04;;;;;;;6.13;4.45;;;28.70;54.50;;;;;;4992444;28;20022;-49
2021/07/25 07:02:46;;;;;;;5.97;4.25;;;29.00;53.90;;;;;;4992802;28;20364;-49
2021/07/25 07:05:11;;;;;;;5.22;4.25;;;29.10;53.20;;;;;;4992341;28;20446;-47
2021/07/25 07:07:37;;;;;;;5.95;3.92;;;29.40;52.80;;;;;;4974827;28;20066;-49
2021/07/25 07:10:03;;;;;;;5.38;4.00;;;29.50;52.40;;;;;;4991626;28;20022;-50
2021/07/25 07:12:29;;;;;;;10.52;4.78;;;29.60;52.00;;;;;;4975013;28;20488;-48
2021/07/25 07:14:54;;;;;;;5.88;4.72;;;29.70;51.70;;;;;;4975013;28;20029;-52
2021/07/25 07:17:22;;;;;;;7.22;4.10;;;29.90;51.50;;;;;;4975504;28;20030;-48
2021/07/25 07:19:48;;;;;;;8.02;4.43;;;29.90;51.20;;;;;;4974661;28;20070;-48
2021/07/25 07:22:33;;;;;;;5.90;4.60;;;30.10;50.80;;;;;;4992323;28;20116;-52
2021/07/25 07:24:58;;;;;;;6.47;4.63;;;30.10;50.30;;;;;;4991525;28;20023;-49
2021/07/25 07:27:25;;;;;;;7.78;4.70;;;30.20;50.30;;;;;;4992528;28;20453;-48
2021/07/25 07:29:52;;;;;;;7.43;4.50;;;30.30;50.00;;;;;;4992060;28;20030;-46
2021/07/25 07:32:17;;;;;;;5.88;4.50;;;30.40;49.80;;;;;;4992319;28;20022;-48
2021/07/25 07:34:43;;;;;;;4.70;4.05;;;30.50;49.50;;;;;;4974550;28;20416;-51
2021/07/25 07:37:09;;;;;;;7.60;4.80;;;30.50;49.50;;;;;;4992120;28;20073;-49
2021/07/25 07:39:37;;;;;;;6.90;4.28;;;30.50;49.30;;;;;;4974704;28;20430;-51
2021/07/25 07:42:04;;;;;;;8.45;4.93;;;30.50;49.20;;;;;;4991717;28;20240;-50
2021/07/25 07:44:30;;;;;;;6.55;4.72;;;30.50;49.30;;;;;;4995733;28;20132;-45
2021/07/25 07:46:56;;;;;;;4.88;4.05;;;30.50;49.10;;;;;;4996160;28;20100;-51
2021/07/25 07:49:22;;;;;;;6.95;4.00;;;30.50;49.00;;;;;;4996237;28;20061;-47
2021/07/25 07:51:47;;;;;;;7.20;4.30;;;30.50;48.90;;;;;;4995125;28;20022;-46
2021/07/25 07:54:13;;;;;;;7.20;4.60;;;30.50;48.60;;;;;;4995840;28;20018;-48
2021/07/25 07:56:39;;;;;;;7.25;4.65;;;30.50;49.30;;;;;;4995898;28;20464;-47
2021/07/25 07:59:04;;;;;;;5.82;4.20;;;30.40;48.80;;;;;;4994864;28;20427;-50
2021/07/25 08:01:30;;;;;;;6.68;4.75;;;30.40;48.80;;;;;;4995416;28;20029;-47
2021/07/25 08:03:56;;;;;;;6.50;5.00;;;30.30;48.90;;;;;;4995446;28;20060;-45
2021/07/25 08:06:21;;;;;;;6.97;4.28;;;30.30;49.00;;;;;;4995645;28;20023;-47
2021/07/25 08:08:47;;;;;;;6.05;4.70;;;30.30;49.10;;;;;;4995086;28;20018;-48
2021/07/25 08:11:12;;;;;;;6.28;4.70;;;30.30;49.50;;;;;;4995111;28;20030;-46
2021/07/25 08:13:38;;;;;;;5.65;4.65;;;30.20;49.40;;;;;;4995251;28;20029;-48
2021/07/25 08:16:04;;;;;;;5.57;4.68;;;30.20;49.30;;;;;;4977634;28;20068;-49
2021/07/25 08:18:30;;;;;;;7.72;4.97;;;30.20;49.40;;;;;;4995236;28;20556;-46
2021/07/25 08:20:57;;;;;;;7.55;4.75;;;30.20;49.50;;;;;;4994952;28;20033;-49
2021/07/25 08:23:23;;;;;;;7.13;5.18;;;30.10;49.50;;;;;;4978204;28;20073;-50
2021/07/25 08:25:49;;;;;;;7.28;5.20;;;30.10;49.70;;;;;;4977557;28;20030;-49
2021/07/25 08:28:15;;;;;;;5.50;5.00;;;30.10;49.90;;;;;;4978242;28;20018;-49
2021/07/25 08:30:59;;;;;;;5.97;5.25;;;30.10;49.90;;;;;;4977783;28;20361;-46
2021/07/25 08:33:25;;;;;;;8.07;5.10;;;30.10;50.00;;;;;;4995194;28;20113;-48
2021/07/25 08:35:51;;;;;;;6.63;5.30;;;30.10;49.90;;;;;;4994847;28;20026;-48
2021/07/25 08:38:17;;;;;;;6.45;5.50;;;30.10;50.10;;;;;;4977294;28;20363;-49
2021/07/25 08:41:02;;;;;;;7.03;5.38;;;30.00;50.00;;;;;;4977611;28;20022;-45
2021/07/25 08:43:36;;;;;;;6.82;5.35;;;30.00;49.90;;;;;;4995290;28;20032;-47
2021/07/25 08:46:13;;;;;;;7.07;5.20;;;30.00;49.70;;;;;;4994174;28;20469;-46
2021/07/25 08:48:45;;;;;;;7.28;5.75;;;30.00;49.70;;;;;;4994862;28;20030;-49
2021/07/25 08:51:20;;;;;;;7.57;5.20;;;30.00;49.70;;;;;;4994363;28;20101;-50
2021/07/25 08:54:04;;;;;;;6.43;5.78;;;30.00;49.80;;;;;;4995164;28;20026;-50
2021/07/25 08:56:35;;;;;;;7.72;6.03;;;29.90;50.00;;;;;;4993858;28;20053;-49
2021/07/25 08:59:06;;;;;;;8.82;5.97;;;30.00;50.00;;;;;;4976540;28;20440;-46
2021/07/25 09:01:34;;;;;;;7.75;5.72;;;30.00;50.00;;;;;;4994187;28;20096;-50
2021/07/25 09:04:01;;;;;;;8.68;6.13;;;30.00;50.10;;;;;;4992793;28;20085;-50
2021/07/25 09:06:44;;;;;;;8.60;5.78;;;30.00;50.10;;;;;;4993700;28;20126;-51
2021/07/25 09:09:10;;;;;;;8.10;5.78;;;30.00;50.20;;;;;;4993226;28;20236;-48
2021/07/25 09:11:36;;;;;;;8.70;6.18;;;30.00;50.10;;;;;;4993373;28;20080;-44
2021/07/25 09:14:06;;;;;;;8.35;6.40;;;30.00;50.30;;;;;;4975479;28;20034;-49
2021/07/25 09:16:34;;;;;;;11.10;6.90;;;29.90;50.40;;;;;;4993186;28;20070;-47
2021/07/25 09:19:01;;;;;;;9.13;6.38;;;30.00;50.50;;;;;;4992825;28;20051;-46
2021/07/25 09:21:35;;;;;;;11.07;9.52;;;29.90;50.30;;;;;;4993157;28;20030;-50
2021/07/25 09:24:25;;;;;;;11.57;10.38;;;29.90;50.50;;;;;;4976006;28;20026;-49
2021/07/25 09:26:58;;;;;;;11.90;10.63;;;29.90;50.50;;;;;;4993907;28;20026;-50
2021/07/25 09:29:44;;;;;;;13.80;9.00;;;30.00;50.50;;;;;;4976437;28;20030;-46
2021/07/25 09:32:13;;;;;;;12.52;10.45;;;30.00;50.30;;;;;;4974217;28;20065;-45
2021/07/25 09:34:44;;;;;;;14.32;10.88;;;30.00;50.30;;;;;;4988780;28;20432;-46
2021/07/25 09:37:19;;;;;;;14.65;11.52;;;30.00;50.40;;;;;;4992474;28;20042;-49
2021/07/25 09:39:51;;;;;;;13.70;11.60;;;29.90;50.40;;;;;;4975904;28;20054;-44
2021/07/25 09:42:30;;;;;;;13.48;10.68;;;30.00;50.60;;;;;;4992775;28;20062;-47
2021/07/25 09:44:57;;;;;;;10.30;8.77;;;30.00;50.30;;;;;;4975487;28;20080;-49
2021/07/25 09:47:35;;;;;;;12.75;9.73;;;30.00;50.30;;;;;;4975457;28;20484;-49
2021/07/25 09:50:03;;;;;;;12.20;10.18;;;30.00;50.20;;;;;;4975358;28;20515;-45
2021/07/25 09:52:33;;;;;;;10.93;9.60;;;30.00;50.30;;;;;;4992823;28;20026;-45
2021/07/25 09:54:59;;;;;;;11.35;10.05;;;30.00;50.20;;;;;;4975103;28;20030;-50
2021/07/25 09:57:27;;;;;;;10.65;9.00;;;30.00;50.00;;;;;;4975362;28;20038;-45
2021/07/25 09:59:54;;;;;;;10.25;8.82;;;30.00;49.90;;;;;;4992846;28;20034;-45
2021/07/25 10:02:44;;;;;;;11.30;8.73;;;30.00;49.80;;;;;;4992726;28;20056;-47
2021/07/25 10:05:13;;;;;;;9.70;8.20;;;29.90;49.80;;;;;;4974390;28;20112;-48
2021/07/25 10:07:40;;;;;;;10.77;8.25;;;30.00;49.60;;;;;;4992149;28;20456;-51
2021/07/25 10:10:09;;;;;;;9.40;7.60;;;30.00;49.60;;;;;;4991285;28;20492;-47
2021/07/25 10:12:36;;;;;;;9.00;6.95;;;30.00;49.50;;;;;;4987376;28;20069;-51
2021/07/25 10:15:10;;;;;;;8.25;7.35;;;30.00;49.40;;;;;;4991929;28;20054;-47
2021/07/25 10:17:39;;;;;;;8.85;7.07;;;30.00;49.40;;;;;;4991633;28;20037;-52
2021/07/25 10:20:09;;;;;;;7.95;7.05;;;30.00;49.50;;;;;;4991578;28;20041;-52
2021/07/25 10:22:38;;;;;;;7.57;6.13;;;30.00;49.40;;;;;;4992460;28;20160;-50
2021/07/25 10:25:06;;;;;;;7.78;6.72;;;30.00;49.40;;;;;;4991545;28;20034;-46
2021/07/25 10:27:32;;;;;;;8.93;6.80;;;30.00;49.30;;;;;;4992209;28;20042;-47
2021/07/25 10:30:09;;;;;;;7.30;5.95;;;30.00;49.40;;;;;;4991679;28;20031;-49
2021/07/25 10:32:38;;;;;;;10.45;6.70;;;29.90;49.30;;;;;;4992303;28;20568;-46
2021/07/25 10:35:08;;;;;;;7.65;6.40;;;30.00;49.30;;;;;;4991541;28;20029;-50
2021/07/25 10:37:39;;;;;;;8.88;6.30;;;30.00;49.30;;;;;;4991848;28;20381;-49
2021/07/25 10:40:06;;;;;;;9.02;6.15;;;30.00;49.10;;;;;;4991057;28;20029;-46
2021/07/25 10:42:38;;;;;;;8.15;6.53;;;30.00;49.10;;;;;;4986172;28;20058;-52
2021/07/25 10:45:04;;;;;;;8.50;6.53;;;30.00;49.00;;;;;;4972606;28;20201;-50
2021/07/25 10:47:33;;;;;;;7.78;6.03;;;30.00;49.00;;;;;;4954129;28;20041;-51
2021/07/25 10:50:07;;;;;;;10.27;6.47;;;30.00;49.10;;;;;;4988717;28;20033;-48
2021/07/25 10:52:59;;;;;;;8.82;6.53;;;30.00;49.00;;;;;;4990436;28;20589;-48
2021/07/25 10:55:34;;;;;;;8.13;6.97;;;30.00;49.10;;;;;;4990599;28;20033;-47
2021/07/25 10:58:28;;;;;;;9.30;7.53;;;30.00;49.00;;;;;;4988415;28;20056;-46
2021/07/25 11:00:57;;;;;;;9.40;7.70;;;30.00;49.30;;;;;;4969536;28;20026;-50
2021/07/25 11:03:25;;;;;;;10.32;7.63;;;30.10;49.40;;;;;;4991857;28;20073;-46
2021/07/25 11:06:07;;;;;;;9.75;7.85;;;30.10;49.40;;;;;;4974109;28;20503;-48
2021/07/25 11:08:43;;;;;;;10.70;8.75;;;30.00;49.70;;;;;;4991208;28;20058;-46
2021/07/25 11:11:36;;;;;;;10.45;8.80;;;30.10;49.80;;;;;;4989254;28;20109;-47
2021/07/25 11:14:07;;;;;;;11.30;8.40;;;30.00;50.20;;;;;;4990588;28;20030;-46
2021/07/25 11:16:34;;;;;;;10.48;8.65;;;30.10;50.20;;;;;;4991725;28;20496;-46
2021/07/25 11:19:11;;;;;;;12.27;8.95;;;30.10;50.20;;;;;;4973210;28;20448;-47
2021/07/25 11:24:26;;;;;;;11.32;8.90;;;30.20;50.60;;;;;;4991489;28;20105;-51
2021/07/25 11:26:53;;;;;;;11.73;9.20;;;30.20;50.50;;;;;;4991007;28;20477;-46
2021/07/25 11:29:39;;;;;;;11.50;8.48;;;30.10;50.40;;;;;;4990956;28;20030;-46
2021/07/25 11:32:26;;;;;;;10.75;8.93;;;30.10;50.60;;;;;;4991051;28;20031;-46
2021/07/25 11:35:02;;;;;;;11.63;9.38;;;30.20;50.70;;;;;;4991937;28;20022;-44
2021/07/25 11:37:40;;;;;;;11.18;8.82;;;30.20;50.60;;;;;;4971513;28;20409;-47
2021/07/25 11:40:10;;;;;;;11.48;9.10;;;30.20;50.60;;;;;;4991786;28;20027;-45
2021/07/25 11:42:40;;;;;;;10.07;8.98;;;30.20;50.60;;;;;;4973569;28;20034;-48
2021/07/25 11:45:07;;;;;;;10.13;8.75;;;30.20;51.10;;;;;;4990463;28;20496;-48
2021/07/25 11:47:33;;;;;;;9.88;8.77;;;30.30;50.60;;;;;;4990558;28;20037;-50
2021/07/25 11:49:59;;;;;;;11.65;8.40;;;30.30;50.60;;;;;;4973747;28;20114;-51
2021/07/25 11:52:27;;;;;;;10.15;9.07;;;30.30;50.70;;;;;;4989884;28;20109;-50
2021/07/25 11:54:53;;;;;;;10.65;8.77;;;30.30;50.50;;;;;;4990678;28;20098;-49
2021/07/25 11:57:28;;;;;;;13.23;9.32;;;30.30;50.60;;;;;;4990961;28;20034;-47
2021/07/25 12:00:01;;;;;;;11.73;10.50;;;30.30;50.70;;;;;;4974121;28;20088;-48
2021/07/25 12:02:33;;;;;;;12.48;10.43;;;30.30;51.00;;;;;;4991566;28;20053;-51
2021/07/25 12:04:59;;;;;;;11.88;9.85;;;30.30;50.90;;;;;;4990986;28;20051;-48
2021/07/25 12:07:35;;;;;;;17.50;10.77;;;30.40;51.00;;;;;;4988663;28;20022;-51
2021/07/25 12:10:03;;;;;;;14.75;10.20;;;30.30;51.10;;;;;;4971058;28;20034;-54
2021/07/25 12:12:32;;;;;;;10.77;9.32;;;30.40;51.10;;;;;;4966306;28;20023;-50
2021/07/25 12:15:02;;;;;;;13.82;9.57;;;30.40;51.00;;;;;;4983505;28;20102;-46
2021/07/25 12:17:47;;;;;;;10.52;9.35;;;30.40;50.90;;;;;;4983527;28;20270;-52
2021/07/25 12:20:31;;;;;;;10.88;9.77;;;30.40;51.10;;;;;;4990219;28;20026;-48
2021/07/25 12:23:02;;;;;;;11.27;9.82;;;30.40;51.20;;;;;;4988964;28;20046;-45
2021/07/25 12:25:33;;;;;;;12.30;9.80;;;30.40;51.40;;;;;;4987037;28;20097;-51
2021/07/25 12:28:09;;;;;;;10.30;9.27;;;30.40;51.40;;;;;;4985213;28;20030;-56
2021/07/25 12:31:07;;;;;;;12.95;9.38;;;30.50;51.30;;;;;;4974980;28;20035;-50
2021/07/25 12:33:33;;;;;;;9.43;8.48;;;30.50;51.00;;;;;;4993050;28;20041;-53
2021/07/25 12:36:10;;;;;;;12.20;8.35;;;30.50;50.50;;;;;;4994223;28;20109;-52
2021/07/25 12:38:35;;;;;;;11.55;9.25;;;30.50;50.60;;;;;;4994032;28;20053;-51
2021/07/25 12:41:03;;;;;;;14.18;9.88;;;30.60;50.70;;;;;;4993586;28;20380;-58
2021/07/25 12:43:30;;;;;;;14.13;9.75;;;30.60;50.70;;;;;;4994158;28;20037;-57
2021/07/25 12:45:59;;;;;;;9.52;8.52;;;30.60;50.70;;;;;;4994217;28;20085;-60
2021/07/25 12:48:26;;;;;;;11.18;8.77;;;30.60;50.60;;;;;;4992917;28;20037;-55
2021/07/25 12:53:38;;;;;;;11.35;8.57;;;30.50;50.20;;;;;;4993504;28;20035;-53
2021/07/25 12:56:12;;;;;;;11.00;9.20;;;30.50;50.10;;;;;;4993439;28;20045;-58
2021/07/25 12:58:41;;;;;;;9.68;8.25;;;30.50;50.10;;;;;;4993628;28;20034;-51